WetterOnline ( http://www.wetteronline.ch )

Wetter aktuell Goldberg

Aktuelles Wetter: Goldberg (58m)

6-stündlich | Neueste Meldungen
Ortszeit Temperatur Wetter
Mo, 25.03. 1:00 3.2° C wolkig
So, 24.03. 19:00 5.9° C bedeckt
So, 24.03. 13:00 7.3° C bedeckt
So, 24.03. 7:00 2.5° C bedeckt
So, 24.03. 1:00 4.5° C bedeckt
Sa, 23.03. 19:00 8.3° C wolkig
Sa, 23.03. 13:00 10.5° C bewölkt
Sa, 23.03. 7:00 4.8° C Nebel
Ortszeit Temperatur Wetter
Mo, 25.03. 2:00 3.1° C wolkenlos
Mo, 25.03. 1:50 3.1° C wolkenlos
Mo, 25.03. 1:40 3.2° C wolkenlos
Mo, 25.03. 1:30 3.3° C wolkenlos
Mo, 25.03. 1:20 3.3° C wolkenlos
Mo, 25.03. 1:10 3.2° C fast wolkenlos
Mo, 25.03. 1:00 3.2° C wolkig
Mo, 25.03. 0:30 3.6° C bewölkt
Mo, 25.03. 0:00 3.7° C bedeckt
So, 24.03. 23:30 3.2° C bewölkt
So, 24.03. 23:00 3.0° C bedeckt
Ortszeit Relative Feuchte Sichtweite
Mo, 25.03. 1:00 79% 30 km
So, 24.03. 19:00 65% 35 km
So, 24.03. 13:00 64% 30 km
So, 24.03. 7:00 96% 13 km
So, 24.03. 1:00 79% 29 km
Sa, 23.03. 19:00 83% 6 km
Sa, 23.03. 13:00 77% 7 km
Sa, 23.03. 7:00 99% <100 m
Ortszeit Relative Feuchte Sichtweite
Mo, 25.03. 2:00 80% 26 km
Mo, 25.03. 1:50 80% -
Mo, 25.03. 1:40 79% -
Mo, 25.03. 1:30 78% 28 km
Mo, 25.03. 1:20 78% -
Mo, 25.03. 1:10 79% -
Mo, 25.03. 1:00 79% 30 km
Mo, 25.03. 0:30 78% 30 km
Mo, 25.03. 0:00 82% 28 km
So, 24.03. 23:30 82% 29 km
So, 24.03. 23:00 82% 29 km
Ortszeit Niederschlagsmenge Niederschlagsart
Mo, 25.03. 1:00 0.0 l/m2 in 6 Std. -
So, 24.03. 19:00 0.0 l/m2 in 12 Std. -
So, 24.03. 13:00 0.0 l/m2 in 6 Std. -
So, 24.03. 7:00 0.0 l/m2 in 12 Std. -
So, 24.03. 1:00 0.0 l/m2 in 6 Std. -
Sa, 23.03. 19:00 0.0 l/m2 in 12 Std. -
Sa, 23.03. 13:00 0.0 l/m2 in 6 Std. -
Sa, 23.03. 7:00 0.0 l/m2 in 12 Std. -
Ortszeit Niederschlagsmenge Niederschlagsart
Mo, 25.03. 2:00 0.0 l/m2 in 1 Std. -
Mo, 25.03. 1:50 keine Meldung -
Mo, 25.03. 1:40 keine Meldung -
Mo, 25.03. 1:30 0.0 l/m2 in 1 Std. -
Mo, 25.03. 1:20 keine Meldung -
Mo, 25.03. 1:10 keine Meldung -
Mo, 25.03. 1:00 0.0 l/m2 in 1 Std. -
Mo, 25.03. 0:30 0.0 l/m2 in 1 Std. -
Mo, 25.03. 0:00 0.0 l/m2 in 1 Std. -
So, 24.03. 23:30 0.0 l/m2 in 1 Std. -
So, 24.03. 23:00 0.0 l/m2 in 1 Std. -
Ortszeit Stärke Spitze Richtung
km/h Bft. km/h Grad Sektor
Mo, 25.03. 1:00 9 2 19 240° SW
So, 24.03. 19:00 7 2 25 280° W
So, 24.03. 13:00 7 2 14 270° W
So, 24.03. 7:00 4 1 14 270° W
So, 24.03. 1:00 9 2 26 320° NW
Sa, 23.03. 19:00 7 2 25 280° W
Sa, 23.03. 13:00 15 3 28 260° W
Sa, 23.03. 7:00 4 1 14 160° S
Ortszeit Stärke Spitze Richtung
km/h Bft. km/h Grad Sektor
Mo, 25.03. 2:00 14 3 22 230° SW
Mo, 25.03. 1:50 14 3 - 230° SW
Mo, 25.03. 1:40 14 3 - 230° SW
Mo, 25.03. 1:30 15 3 22 230° SW
Mo, 25.03. 1:20 15 3 - 230° SW
Mo, 25.03. 1:10 13 3 - 230° SW
Mo, 25.03. 1:00 9 2 17 240° SW
Mo, 25.03. 0:30 11 2 18 230° SW
Mo, 25.03. 0:00 11 2 19 240° SW
So, 24.03. 23:30 13 3 15 240° SW
So, 24.03. 23:00 11 2 18 240° SW
Ortszeit Untergrenze Bedeckung Gattung
total tief tief mittel hoch
Mo, 25.03. 1:00 1500 m 6/8 6/8 - - -
So, 24.03. 19:00 4200 m 8/8 8/8 - - -
So, 24.03. 13:00 3300 m 8/8 8/8 - - -
So, 24.03. 7:00 3300 m 8/8 8/8 - - -
So, 24.03. 1:00 3600 m 8/8 8/8 - - -
Sa, 23.03. 19:00 960 m 5/8 5/8 - - -
Sa, 23.03. 13:00 450 m 7/8 7/8 - - -
Sa, 23.03. 7:00 <30 m 8/8 0/8 - - -
Ortszeit Bedeckungsgrad in Achtel und Wolkenuntergrenze
Mo, 25.03. 2:00 keine Wolken
Mo, 25.03. 1:50 keine Wolken
Mo, 25.03. 1:40 keine Wolken
Mo, 25.03. 1:30 keine Wolken
Mo, 25.03. 1:20 keine Wolken
Mo, 25.03. 1:10 1(1500m)
Mo, 25.03. 1:00 6(1500m)
Mo, 25.03. 0:30 7(1500m)
Mo, 25.03. 0:00 8(1500m) 8(3600m)
So, 24.03. 23:30 4(1500m) 8(3300m)
So, 24.03. 23:00 7(3300m) 8(3900m)
Ortszeit Luftdruck NN (hPa) Tendenz (hPa in 3 Std.)
Mo, 25.03. 1:00 1016 - 3,2
So, 24.03. 19:00 1021 - 2,1
So, 24.03. 13:00 1026 - 2,2
So, 24.03. 7:00 1029 - 0,4
So, 24.03. 1:00 1030 + 0,1
Sa, 23.03. 19:00 1029 + 0,8
Sa, 23.03. 13:00 1027 + 0,8
Sa, 23.03. 7:00 1025 + 0,4
Ortszeit Luftdruck NN (hPa) Tendenz (hPa in 3 Std.)
Mo, 25.03. 2:00 1015 - 3,9
Mo, 25.03. 1:50 1015 keine Meldung
Mo, 25.03. 1:40 1015 keine Meldung
Mo, 25.03. 1:30 1015 - 3,7
Mo, 25.03. 1:20 1015 keine Meldung
Mo, 25.03. 1:10 1016 keine Meldung
Mo, 25.03. 1:00 1016 - 3,2
Mo, 25.03. 0:30 1017 - 3,2
Mo, 25.03. 0:00 1017 - 2,8
So, 24.03. 23:30 1018 - 2,5
So, 24.03. 23:00 1018 - 2,3
Ortszeit Schneehöhe (cm)
Mo, 25.03. 1:00 0
So, 24.03. 19:00 0
So, 24.03. 13:00 0
So, 24.03. 7:00 0
So, 24.03. 1:00 0
Sa, 23.03. 19:00 0
Sa, 23.03. 13:00 0
Sa, 23.03. 7:00 0
Ortszeit Schneehöhe (cm)
Mo, 25.03. 2:00 0
Mo, 25.03. 1:50 0
Mo, 25.03. 1:40 0
Mo, 25.03. 1:30 0
Mo, 25.03. 1:20 0
Mo, 25.03. 1:10 0
Mo, 25.03. 1:00 0
Mo, 25.03. 0:30 0
Mo, 25.03. 0:00 0
So, 24.03. 23:30 0
So, 24.03. 23:00 0
Link zu dieser Seite / Seite empfehlen

Das Wetter in ...